Accueil
METAR-TAF:

METAR-TAF

Aéroports :

Sabadell, Espagne

latitude: 41-31N, longitude: 002-06E, altitude: 250 m

Observation

Le bulletin a été fait il y a 30 minutes, à 15:00 UTC
Vent 12 kt de sud-est, variant entre est et sud/sud-est
Température 16°C
Humidité 59%
Pression 1016 hPa
Visibilité 10 km ou plus
Quelques nuages à une hauteur de 3500 ft

METAR: LELL 191500Z 13012KT 100V160 9999 FEW035 16/08 Q1016

Heure: 17:30 (15:30 UTC)

Prévision

Le bulletin a été fait il y a 1 heure et 30 minutes, à 14:00 UTC
Prévision valable du 19 à 15 UTC au 20 à 15 UTC
Vent 8 kt de est/sud-est
Visibilité 10 km ou plus
Nuages épars à une hauteur de 3000 ft
Evoluant progressivement
du 19 à 19 UTC au 19 à 22 UTC
Vent 3 kt de direction variable

TAF: LELL 191400Z 1915/2015 11008KT 9999 SCT030 TX18/2013Z TN07/2005Z BECMG 1919/1922 VRB03KT

Observations et prévisions météorologiques de plus de 4000 aéroports (messages METAR et TAF).

Les stations disponibles sont représentées par des disques jaunes et rouges sur la carte.

Passer la souris dessus pour voir le nom de la station.

Cliquer dessus pour voir les observations et prévisions météorologiques.

Pour changer de carte: cliquez sur les boutons verts avec une croix noire pour zoomer, sur le bouton vert avec un tiret pour effectuer un zoom arrière, ou sur les flèches vertes pour les cartes adjacentes.


METAR-TAF: